Cloverdale, OR (97112)

8:49 AM PDT on September 22, 2014 (GMT -0700)
Wi-Ne-Ma | Change Station
CLOSE
Current Station
Personal Weather Station
Location: Cloverdale, OR
Elevation: 64 ft
Nearby Weather Stations

Elev 64 ft 45.15 °N, 123.97 °W | Updated 3 minutes ago

Overcast
Overcast
60.1 °F
Feels Like 60.1 °F
N
0.0
Wind Variable Wind from SW
Gusts 0.0 mph

Today
High -- | Low -- °F
--% Chance of Precip.
Yesterday
High -- | Low -- °F
Precip. -- in
7:02 AM 7:13 PM
Waning Crescent, 2% visible
Pressure 30.02 in
Visibility 10.0 miles
Clouds Overcast 2700 ft
Dew Point 57 °F
Humidity 90%
Rainfall 0.00 in
Snow Depth 1 in , 0 in , 1 in
UV 0 out of 12
Pollen 1.80 out of 12
Air Quality Not available.
Flu Activity Not available.
METAR KTMK 221535Z AUTO 00000KT 10SM OVC027 15/13 A3002 RMK AO2

More Conditions Fewer Conditions

Pressure 30.02 in
Visibility 10.0 miles
Clouds Overcast 2700 ft
Dew Point 57 °F
Humidity 90%
Rainfall 0.00 in
Snow Depth 1 in , 0 in , 1 in
UV 0 out of 12
Pollen 1.80 out of 12
Air Quality Not available.
Flu Activity Not available.
METAR KTMK 221535Z AUTO 00000KT 10SM OVC027 15/13 A3002 RMK AO2

More Conditions Fewer Conditions

10-Day Weather Forecast

Almanac

Astronomy

Sep. 22, 2014 Rise Set
Actual Time 7:02 AM PDT 7:13 PM PDT
Civil Twilight 6:33 AM PDT 7:42 PM PDT
Nautical Twilight 5:58 AM PDT 8:16 PM PDT
Astronomical Twilight 5:23 AM PDT 8:52 PM PDT
Moon 5:34 AM PDT 6:25 PM PDT
Length of Visible Light 13h 08m
Length of Day
12h 10m
Tomorrow will be 3m 8s shorter.
Waning Crescent, 2% of the Moon is Illuminated
Today
Waning Crescent
Sep 24
New
Oct 1
First Quarter
Oct 8
Full
Oct 15
Last Quarter

Today's Extremes

State Highs State Lows

Community

WunderPhotos

Upload Photos

1,755,467 photos uploaded!

Nearby

Snow Depth

Station Depth Elevation
Mt. Howard 1 in 7910 ft
High Ridge 0 in 4980 ft
Greenpoint 1 in 3200 ft
Blue Mountain Spring 0 in 5900 ft
Roaring River 0 in 4900 ft

Earthquake Activity

City Distance Mag. Time & Date
No recent earthquake activity has been reported nearby.
Minimum magnitude displayed is 2.5.

Coastal Water Temperatures

Place Temperature
Astoria, OR 64.9 °F
Westport, WA 60.1 °F

Nearby Weather Stations